createdAt,value
2018-07-25T00:00:01.452Z,67.00
2018-07-25T00:01:01.431Z,67.19
2018-07-25T00:02:01.452Z,67.30
2018-07-25T00:03:01.416Z,67.00
2018-07-25T00:04:01.405Z,68.03
2018-07-25T00:05:01.388Z,67.33
2018-07-25T00:06:01.390Z,66.63
2018-07-25T00:07:01.364Z,66.23
2018-07-25T00:08:01.379Z,66.43
2018-07-25T00:09:01.346Z,66.03
2018-07-25T00:10:01.331Z,66.13
2018-07-25T00:11:01.324Z,66.43
2018-07-25T00:12:01.341Z,66.23
2018-07-25T00:13:01.324Z,66.03
2018-07-25T00:14:01.289Z,66.36
2018-07-25T00:15:01.273Z,66.43
2018-07-25T00:16:01.262Z,66.96
2018-07-25T00:17:01.257Z,66.76
2018-07-25T00:18:01.239Z,67.26
2018-07-25T00:19:01.257Z,67.06
2018-07-25T00:20:01.219Z,67.16
2018-07-25T00:21:01.212Z,67.16
2018-07-25T00:22:01.197Z,67.40
2018-07-25T00:23:01.187Z,67.29
2018-07-25T00:24:01.199Z,67.59
2018-07-25T00:25:01.163Z,66.96
2018-07-25T00:26:01.151Z,67.46
2018-07-25T00:27:01.144Z,68.09
2018-07-25T00:28:01.129Z,68.29
2018-07-25T00:29:01.146Z,67.99
2018-07-25T00:30:01.110Z,67.79
2018-07-25T00:31:01.090Z,67.79
2018-07-25T00:32:01.088Z,67.99
2018-07-25T00:33:01.068Z,67.89
2018-07-25T00:34:01.097Z,68.49
2018-07-25T00:35:01.048Z,68.29
2018-07-25T00:36:01.045Z,68.19
2018-07-25T00:37:01.031Z,68.43
2018-07-25T00:38:01.023Z,68.49
2018-07-25T00:39:00.999Z,68.09
2018-07-25T00:40:01.023Z,67.89
2018-07-25T00:41:00.977Z,67.93
2018-07-25T00:42:00.969Z,68.93
2018-07-25T00:43:00.960Z,69.02
2018-07-25T00:44:00.945Z,68.52
2018-07-25T00:45:00.961Z,67.99
2018-07-25T00:46:00.926Z,68.93
2018-07-25T00:47:00.917Z,68.62
2018-07-25T00:48:00.904Z,68.82
2018-07-25T00:49:00.889Z,69.02
2018-07-25T00:50:00.914Z,68.82
2018-07-25T00:51:00.864Z,69.12
2018-07-25T00:52:00.856Z,68.82
2018-07-25T00:53:00.856Z,69.62
2018-07-25T00:54:00.835Z,69.82
2018-07-25T00:55:00.823Z,69.86
2018-07-25T00:56:00.839Z,69.23
2018-07-25T00:57:00.801Z,69.36
2018-07-25T00:58:00.785Z,69.76
2018-07-25T00:59:00.782Z,69.16
2018-07-25T01:00:00.761Z,70.06
2018-07-25T01:01:00.782Z,70.16
2018-07-25T01:02:00.748Z,70.36
2018-07-25T01:03:00.728Z,70.36
2018-07-25T01:04:00.728Z,69.26
2018-07-25T01:05:00.705Z,70.06
2018-07-25T01:06:00.721Z,69.59
2018-07-25T01:07:00.688Z,70.39
2018-07-25T01:08:00.679Z,70.36
2018-07-25T01:09:00.666Z,70.19
2018-07-25T01:10:00.653Z,70.19
2018-07-25T01:11:00.679Z,70.29
2018-07-25T01:12:00.626Z,70.79
2018-07-25T01:13:00.624Z,70.59
2018-07-25T01:14:00.603Z,70.89
2018-07-25T01:15:00.603Z,71.39
2018-07-25T01:16:00.585Z,70.79
2018-07-25T01:17:00.596Z,70.69
2018-07-25T01:18:00.565Z,71.00
2018-07-25T01:19:00.546Z,71.19
2018-07-25T01:20:00.537Z,70.93
2018-07-25T01:21:00.528Z,71.23
2018-07-25T01:22:00.535Z,71.00
2018-07-25T01:23:00.509Z,71.19
2018-07-25T01:24:00.493Z,72.23
2018-07-25T01:25:00.480Z,72.13
2018-07-25T01:26:00.474Z,72.03
2018-07-25T01:27:00.495Z,71.23
2018-07-25T01:28:00.452Z,71.03
2018-07-25T01:29:00.438Z,70.53
2018-07-25T01:30:00.423Z,70.39
2018-07-25T01:31:00.417Z,70.93
2018-07-25T01:32:00.400Z,71.23
2018-07-25T01:33:00.419Z,71.12
2018-07-25T01:34:00.380Z,70.93
2018-07-25T01:35:00.366Z,71.93
2018-07-25T01:36:00.360Z,72.23
2018-07-25T01:37:00.345Z,71.12
2018-07-25T01:38:00.358Z,71.16
2018-07-25T01:39:00.326Z,70.66
2018-07-25T01:40:00.311Z,70.76
2018-07-25T01:41:00.296Z,70.66
2018-07-25T01:42:00.291Z,70.62
2018-07-25T01:43:00.295Z,70.56
2018-07-25T01:44:00.262Z,71.12
2018-07-25T01:45:00.271Z,70.93
2018-07-25T01:46:00.245Z,71.26
2018-07-25T01:47:00.224Z,70.53
2018-07-25T01:48:00.217Z,70.86
2018-07-25T01:49:00.212Z,71.03
2018-07-25T01:50:00.215Z,70.76
2018-07-25T01:51:00.186Z,70.76
2018-07-25T01:52:00.176Z,70.76
2018-07-25T01:53:00.158Z,71.16
2018-07-25T01:54:00.147Z,70.96
2018-07-25T01:55:00.156Z,71.16
2018-07-25T01:56:00.123Z,71.09
2018-07-25T01:57:00.113Z,71.26
2018-07-25T01:58:00.104Z,71.96
2018-07-25T01:59:00.092Z,72.20
2018-07-25T02:00:00.119Z,72.20
2018-07-25T02:01:00.072Z,72.00
2018-07-25T02:02:00.058Z,72.00
2018-07-25T02:03:00.042Z,72.09
2018-07-25T02:04:00.027Z,72.20
2018-07-25T02:05:00.050Z,72.09
2018-07-25T02:06:00.006Z,72.70
2018-07-25T02:06:59.996Z,72.09
2018-07-25T02:07:59.988Z,73.00
2018-07-25T02:09:00.019Z,72.80
2018-07-25T02:09:59.980Z,72.50
2018-07-25T02:10:59.951Z,72.74
2018-07-25T02:11:59.933Z,73.13
2018-07-25T02:12:59.929Z,73.40
2018-07-25T02:13:59.919Z,73.10
2018-07-25T02:14:59.921Z,73.24
2018-07-25T02:15:59.894Z,73.30
2018-07-25T02:16:59.880Z,73.10
2018-07-25T02:17:59.870Z,73.24
2018-07-25T02:18:59.860Z,73.10
2018-07-25T02:19:59.867Z,73.33
2018-07-25T02:20:59.835Z,73.50
2018-07-25T02:21:59.822Z,73.33
2018-07-25T02:22:59.809Z,73.64
2018-07-25T02:23:59.799Z,73.74
2018-07-25T02:24:59.810Z,74.34
2018-07-25T02:25:59.771Z,73.54
2018-07-25T02:26:59.764Z,73.64
2018-07-25T02:27:59.754Z,74.34
2018-07-25T02:28:59.733Z,74.54
2018-07-25T02:29:59.753Z,74.24
2018-07-25T02:30:59.713Z,74.68
2018-07-25T02:31:59.698Z,74.24
2018-07-25T02:32:59.690Z,73.94
2018-07-25T02:33:59.677Z,74.64
2018-07-25T02:34:59.699Z,74.57
2018-07-25T02:35:59.660Z,74.98
2018-07-25T02:36:59.643Z,74.98
2018-07-25T02:37:59.638Z,74.77
2018-07-25T02:38:59.618Z,74.27
2018-07-25T02:39:59.629Z,74.57
2018-07-25T02:40:59.605Z,75.08
2018-07-25T02:41:59.583Z,74.68
2018-07-25T02:42:59.574Z,75.08
2018-07-25T02:43:59.565Z,75.27
2018-07-25T02:44:59.579Z,75.08
2018-07-25T02:45:59.543Z,75.18
2018-07-25T02:46:59.523Z,74.88
2018-07-25T02:47:59.515Z,75.58
2018-07-25T02:48:59.500Z,75.27
2018-07-25T02:49:59.516Z,75.27
2018-07-25T02:50:59.483Z,75.62
2018-07-25T02:51:59.473Z,75.18
2018-07-25T02:52:59.453Z,75.08
2018-07-25T02:53:59.449Z,75.58
2018-07-25T02:54:59.452Z,75.38
2018-07-25T02:55:59.419Z,75.31
2018-07-25T02:56:59.460Z,75.31
2018-07-25T02:57:59.397Z,75.62
2018-07-25T02:58:59.384Z,75.48
2018-07-25T02:59:59.398Z,75.38
2018-07-25T03:00:59.367Z,75.71
2018-07-25T03:01:59.353Z,75.82
2018-07-25T03:02:59.339Z,76.02
2018-07-25T03:03:59.331Z,75.71
2018-07-25T03:04:59.346Z,75.62
2018-07-25T03:05:59.301Z,75.42
2018-07-25T03:06:59.301Z,76.32
2018-07-25T03:07:59.279Z,75.68
2018-07-25T03:08:59.331Z,76.52
2018-07-25T03:09:59.287Z,75.71
2018-07-25T03:10:59.243Z,76.15
2018-07-25T03:11:59.239Z,75.85
2018-07-25T03:12:59.224Z,75.92
2018-07-25T03:13:59.215Z,76.32
2018-07-25T03:14:59.223Z,76.15
2018-07-25T03:15:59.190Z,76.05
2018-07-25T03:16:59.177Z,75.95
2018-07-25T03:17:59.163Z,76.05
2018-07-25T03:18:59.155Z,76.35
2018-07-25T03:19:59.174Z,76.35
2018-07-25T03:20:59.137Z,76.39
2018-07-25T03:21:59.117Z,76.35
2018-07-25T03:22:59.115Z,76.65
2018-07-25T03:23:59.094Z,76.96
2018-07-25T03:24:59.111Z,77.56
2018-07-25T03:25:59.080Z,77.46
2018-07-25T03:26:59.060Z,77.66
2018-07-25T03:27:59.051Z,76.86
2018-07-25T03:28:59.040Z,77.16
2018-07-25T03:29:59.056Z,77.26
2018-07-25T03:30:59.012Z,77.46
2018-07-25T03:31:59.009Z,77.29
2018-07-25T03:32:58.989Z,77.59
2018-07-25T03:33:58.977Z,76.96
2018-07-25T03:34:59.002Z,76.96
2018-07-25T03:35:58.952Z,77.16
2018-07-25T03:36:58.951Z,76.86
2018-07-25T03:37:58.930Z,76.76
2018-07-25T03:38:58.927Z,76.96
2018-07-25T03:39:58.935Z,77.46
2018-07-25T03:40:58.898Z,77.76
2018-07-25T03:41:58.892Z,77.36
2018-07-25T03:42:58.872Z,76.89
2018-07-25T03:43:58.862Z,77.06
2018-07-25T03:44:58.881Z,76.79
2018-07-25T03:45:58.843Z,77.00
2018-07-25T03:46:58.832Z,77.09
2018-07-25T03:47:58.814Z,77.66
2018-07-25T03:48:58.810Z,77.16
2018-07-25T03:49:58.817Z,77.09
2018-07-25T03:50:58.785Z,77.56
2018-07-25T03:51:58.779Z,76.76
2018-07-25T03:52:58.761Z,77.50
2018-07-25T03:53:58.748Z,77.50
2018-07-25T03:54:58.766Z,77.80
2018-07-25T03:55:58.730Z,78.00
2018-07-25T03:56:58.713Z,77.20
2018-07-25T03:57:58.705Z,78.70
2018-07-25T03:58:58.691Z,78.70
2018-07-25T03:59:58.699Z,78.50
2018-07-25T04:00:58.675Z,78.80
2018-07-25T04:01:58.684Z,78.30
2018-07-25T04:02:58.649Z,78.50
2018-07-25T04:03:58.641Z,78.30
2018-07-25T04:04:58.643Z,78.20
2018-07-25T04:05:58.607Z,78.80
2018-07-25T04:06:58.605Z,78.70
2018-07-25T04:07:58.584Z,78.50
2018-07-25T04:08:58.578Z,78.80
2018-07-25T04:09:58.591Z,78.90
2018-07-25T04:10:58.555Z,78.90
2018-07-25T04:11:58.546Z,79.00
2018-07-25T04:12:58.535Z,78.90
2018-07-25T04:13:58.519Z,78.20
2018-07-25T04:14:58.531Z,78.60
2018-07-25T04:15:58.498Z,78.80
2018-07-25T04:16:58.482Z,78.70
2018-07-25T04:17:58.478Z,78.60
2018-07-25T04:18:58.462Z,79.30
2018-07-25T04:19:58.470Z,78.60
2018-07-25T04:20:58.445Z,78.50
2018-07-25T04:21:58.433Z,79.00
2018-07-25T04:22:58.418Z,79.10
2018-07-25T04:23:58.404Z,79.00
2018-07-25T04:24:58.418Z,79.41
2018-07-25T04:25:58.387Z,79.30
2018-07-25T04:26:58.367Z,79.04
2018-07-25T04:27:58.363Z,79.41
2018-07-25T04:28:58.345Z,79.91
2018-07-25T04:29:58.358Z,79.61
2018-07-25T04:30:58.332Z,79.24
2018-07-25T04:31:58.312Z,79.54
2018-07-25T04:32:58.308Z,80.21
2018-07-25T04:33:58.308Z,79.30
2018-07-25T04:34:58.300Z,80.21
2018-07-25T04:35:58.267Z,80.31
2018-07-25T04:36:58.257Z,80.11
2018-07-25T04:37:58.246Z,80.31
2018-07-25T04:38:58.231Z,80.11
2018-07-25T04:39:58.241Z,79.50
2018-07-25T04:40:58.218Z,79.41
2018-07-25T04:41:58.198Z,79.61
2018-07-25T04:42:58.184Z,79.50
2018-07-25T04:43:58.176Z,79.30
2018-07-25T04:44:58.186Z,79.21
2018-07-25T04:45:58.152Z,79.61
2018-07-25T04:46:58.141Z,79.41
2018-07-25T04:47:58.128Z,79.50
2018-07-25T04:48:58.120Z,79.41
2018-07-25T04:49:58.132Z,79.41
2018-07-25T04:50:58.099Z,79.30
2018-07-25T04:51:58.136Z,79.10
2018-07-25T04:52:58.069Z,78.90
2018-07-25T04:53:58.065Z,79.00
2018-07-25T04:54:58.068Z,79.00
2018-07-25T04:55:58.045Z,79.21
2018-07-25T04:56:58.031Z,78.86
2018-07-25T04:57:58.018Z,78.90
2018-07-25T04:58:57.999Z,79.30
2018-07-25T04:59:58.011Z,78.66
2018-07-25T05:00:57.980Z,78.40
2018-07-25T05:01:57.965Z,78.86
2018-07-25T05:02:57.962Z,78.86
2018-07-25T05:03:57.946Z,79.06
2018-07-25T05:04:57.957Z,78.56
2018-07-25T05:05:57.924Z,78.36
2018-07-25T05:06:57.913Z,78.97
2018-07-25T05:07:57.897Z,78.56
2018-07-25T05:08:57.892Z,78.36
2018-07-25T05:09:57.899Z,78.56
2018-07-25T05:10:57.860Z,78.33
2018-07-25T05:11:57.845Z,78.27
2018-07-25T05:12:57.837Z,77.92
2018-07-25T05:13:57.828Z,78.83
2018-07-25T05:14:57.968Z,78.42
2018-07-25T05:15:57.811Z,78.83
2018-07-25T05:16:57.791Z,78.83
2018-07-25T05:17:57.879Z,77.83
2018-07-25T05:18:57.771Z,77.28
2018-07-25T05:19:57.781Z,77.48
2018-07-25T05:20:57.748Z,77.42
2018-07-25T05:21:57.733Z,76.89
2018-07-25T05:22:57.818Z,76.58
2018-07-25T05:23:57.718Z,76.78
2018-07-25T05:24:57.723Z,76.89
2018-07-25T05:25:57.691Z,77.55
2018-07-25T05:26:57.680Z,76.85
2018-07-25T05:27:57.663Z,76.78
2018-07-25T05:28:57.654Z,77.79
2018-07-25T05:29:57.662Z,76.89
2018-07-25T05:30:57.636Z,76.95
2018-07-25T05:31:57.624Z,76.18
2018-07-25T05:32:57.608Z,76.78
2018-07-25T05:33:57.603Z,76.54
2018-07-25T05:34:57.606Z,76.25
2018-07-25T05:35:57.577Z,76.04
2018-07-25T05:36:57.569Z,75.91
2018-07-25T05:37:57.548Z,75.84
2018-07-25T05:38:57.543Z,76.41
2018-07-25T05:39:57.551Z,76.01
2018-07-25T05:40:57.522Z,75.71
2018-07-25T05:41:57.514Z,76.11
2018-07-25T05:42:57.491Z,75.71
2018-07-25T05:43:57.554Z,75.60
2018-07-25T05:44:57.499Z,75.21
2018-07-25T05:45:57.461Z,75.31
2018-07-25T05:46:57.454Z,75.01
2018-07-25T05:47:57.437Z,74.71
2018-07-25T05:48:57.429Z,74.80
2018-07-25T05:49:57.441Z,74.90
2018-07-25T05:50:57.405Z,74.80
2018-07-25T05:51:57.402Z,74.51
2018-07-25T05:52:57.381Z,74.27
2018-07-25T05:53:57.369Z,74.47
2018-07-25T05:54:57.381Z,74.57
2018-07-25T05:55:57.347Z,73.93
2018-07-25T05:56:57.337Z,74.73
2018-07-25T05:57:57.332Z,74.13
2018-07-25T05:58:57.313Z,74.13
2018-07-25T05:59:57.332Z,74.00
2018-07-25T06:00:57.296Z,72.80
2018-07-25T06:01:57.276Z,72.69
2018-07-25T06:02:57.423Z,73.10
2018-07-25T06:03:57.254Z,73.30
2018-07-25T06:04:57.272Z,72.60
2018-07-25T06:05:57.252Z,72.36
2018-07-25T06:06:57.218Z,71.96
2018-07-25T06:07:57.215Z,72.06
2018-07-25T06:08:57.197Z,71.12
2018-07-25T06:09:57.211Z,70.83
2018-07-25T06:10:57.175Z,70.62
2018-07-25T06:11:57.169Z,70.92
2018-07-25T06:12:57.211Z,70.83
2018-07-25T06:13:57.146Z,71.83
2018-07-25T06:14:57.152Z,70.89
2018-07-25T06:15:57.117Z,70.79
2018-07-25T06:16:57.103Z,70.32
2018-07-25T06:17:57.094Z,70.92
2018-07-25T06:18:57.085Z,70.99
2018-07-25T06:19:57.100Z,70.49
2018-07-25T06:20:57.056Z,70.59
2018-07-25T06:21:57.050Z,70.46
2018-07-25T06:22:57.037Z,70.26
2018-07-25T06:23:57.021Z,70.36
2018-07-25T06:24:57.094Z,70.16
2018-07-25T06:25:57.065Z,69.62
2018-07-25T06:26:56.988Z,69.02
2018-07-25T06:27:56.985Z,68.82
2018-07-25T06:28:56.966Z,68.16
2018-07-25T06:29:56.982Z,67.86
2018-07-25T06:30:56.953Z,68.26
2018-07-25T06:31:56.932Z,68.76
2018-07-25T06:32:56.924Z,67.63
2018-07-25T06:33:56.919Z,67.53
2018-07-25T06:34:56.927Z,66.50
2018-07-25T06:35:56.885Z,66.70
2018-07-25T06:36:56.885Z,65.87
2018-07-25T06:37:56.901Z,65.47
2018-07-25T06:38:56.860Z,65.54
2018-07-25T06:39:56.874Z,65.44
2018-07-25T06:40:56.829Z,65.31
2018-07-25T06:41:56.825Z,64.31
2018-07-25T06:42:56.810Z,64.81
2018-07-25T06:43:56.799Z,62.99
2018-07-25T06:44:56.813Z,63.26
2018-07-25T06:45:56.783Z,61.87
2018-07-25T06:46:56.771Z,61.67
2018-07-25T06:47:56.756Z,61.04
2018-07-25T06:48:56.746Z,61.64
2018-07-25T06:49:56.765Z,61.34
2018-07-25T06:50:56.719Z,62.93
2018-07-25T06:51:56.710Z,60.71
2018-07-25T06:52:56.703Z,60.31
2018-07-25T06:53:56.688Z,60.09
2018-07-25T06:54:56.711Z,60.16
2018-07-25T06:55:56.670Z,60.06
2018-07-25T06:56:56.654Z,59.83
2018-07-25T06:57:56.641Z,60.03
2018-07-25T06:58:56.629Z,60.13
2018-07-25T06:59:56.643Z,58.91
2018-07-25T07:00:56.613Z,59.80
2018-07-25T07:01:56.603Z,59.21
2018-07-25T07:02:56.588Z,57.10
2018-07-25T07:03:56.579Z,58.88
2018-07-25T07:04:56.571Z,58.39
2018-07-25T07:05:56.581Z,57.76
2018-07-25T07:06:56.563Z,58.26
2018-07-25T07:07:56.535Z,56.97
2018-07-25T07:08:56.530Z,57.14
2018-07-25T07:09:56.510Z,57.14
2018-07-25T07:10:56.528Z,56.95
2018-07-25T07:11:56.488Z,56.23
2018-07-25T07:12:56.480Z,55.93
2018-07-25T07:13:56.462Z,56.10
2018-07-25T07:14:56.454Z,55.60
2018-07-25T07:15:56.470Z,55.28
2018-07-25T07:16:56.436Z,55.18
2018-07-25T07:17:56.428Z,55.18
2018-07-25T07:18:56.408Z,55.35
2018-07-25T07:19:56.402Z,54.66
2018-07-25T07:20:56.411Z,54.27
2018-07-25T07:21:56.387Z,53.45
2018-07-25T07:22:56.373Z,55.03
2018-07-25T07:23:56.407Z,53.25
2018-07-25T07:24:56.344Z,54.73
2018-07-25T07:25:56.362Z,52.73
2018-07-25T07:26:56.326Z,51.03
2018-07-25T07:27:56.313Z,50.83
2018-07-25T07:28:56.308Z,51.03
2018-07-25T07:29:56.298Z,52.01
2018-07-25T07:30:56.315Z,50.93
2018-07-25T07:31:56.276Z,50.71
2018-07-25T07:32:56.255Z,50.98
2018-07-25T07:33:56.251Z,51.37
2018-07-25T07:34:56.237Z,50.59
2018-07-25T07:35:56.258Z,49.97
2018-07-25T07:36:56.223Z,49.67
2018-07-25T07:37:56.208Z,49.45
2018-07-25T07:38:56.194Z,48.86
2018-07-25T07:39:56.180Z,49.73
2018-07-25T07:40:56.204Z,50.51
2018-07-25T07:41:56.163Z,49.62
2018-07-25T07:42:56.159Z,47.24
2018-07-25T07:43:56.148Z,47.92
2018-07-25T07:44:56.125Z,47.75
2018-07-25T07:45:56.145Z,48.22
2018-07-25T07:46:56.113Z,48.32
2018-07-25T07:47:56.093Z,46.06
2018-07-25T07:48:56.095Z,45.76
2018-07-25T07:49:56.086Z,45.74
2018-07-25T07:50:56.095Z,45.74
2018-07-25T07:51:56.062Z,45.64
2018-07-25T07:52:56.041Z,45.03
2018-07-25T07:53:56.068Z,45.42
2018-07-25T07:54:56.020Z,45.72
2018-07-25T07:55:56.042Z,46.19
2018-07-25T07:56:56.000Z,43.63
2018-07-25T07:57:55.992Z,43.63
2018-07-25T07:58:55.986Z,45.10
2018-07-25T07:59:55.969Z,44.01
2018-07-25T08:00:55.990Z,46.44
2018-07-25T08:01:55.958Z,45.36
2018-07-25T08:02:55.939Z,43.76
2018-07-25T08:03:55.933Z,43.76
2018-07-25T08:04:55.942Z,43.96
2018-07-25T08:05:55.939Z,45.12
2018-07-25T08:06:55.897Z,43.96
2018-07-25T08:07:55.883Z,42.96
2018-07-25T08:08:55.883Z,43.94
2018-07-25T08:09:55.872Z,43.92
2018-07-25T08:10:55.880Z,43.52
2018-07-25T08:11:55.848Z,41.86
2018-07-25T08:12:55.837Z,43.02
2018-07-25T08:13:55.826Z,41.92
2018-07-25T08:14:55.819Z,41.92
2018-07-25T08:15:55.830Z,42.50
2018-07-25T08:16:55.798Z,41.99
2018-07-25T08:17:55.813Z,41.50
2018-07-25T08:18:55.776Z,39.35
2018-07-25T08:19:55.776Z,40.53
2018-07-25T08:20:55.808Z,40.53
2018-07-25T08:21:55.755Z,39.84
2018-07-25T08:22:55.735Z,40.50
2018-07-25T08:23:55.730Z,40.70
2018-07-25T08:24:55.722Z,40.21
2018-07-25T08:25:55.741Z,40.50
2018-07-25T08:26:55.695Z,39.41
2018-07-25T08:27:55.688Z,39.61
2018-07-25T08:28:55.683Z,39.61
2018-07-25T08:29:55.663Z,39.22
2018-07-25T08:30:55.688Z,39.49
2018-07-25T08:31:55.644Z,39.10
2018-07-25T08:32:55.665Z,38.30
2018-07-25T08:33:55.653Z,39.28
2018-07-25T08:34:55.726Z,39.36
2018-07-25T08:35:55.633Z,38.18
2018-07-25T08:36:55.602Z,38.16
2018-07-25T08:37:55.586Z,38.06
2018-07-25T08:38:55.577Z,37.46
2018-07-25T08:39:55.570Z,36.98
2018-07-25T08:40:55.588Z,36.86
2018-07-25T08:41:55.546Z,36.47
2018-07-25T08:42:55.545Z,36.65
2018-07-25T08:43:55.532Z,36.25
2018-07-25T08:44:55.520Z,35.28
2018-07-25T08:45:55.540Z,35.65
2018-07-25T08:46:55.544Z,35.34
2018-07-25T08:47:55.492Z,34.95
2018-07-25T08:48:55.484Z,35.05
2018-07-25T08:49:55.472Z,34.66
2018-07-25T08:50:55.493Z,35.33
2018-07-25T08:51:55.455Z,33.86
2018-07-25T08:52:55.502Z,33.96
2018-07-25T08:53:55.433Z,33.56
2018-07-25T08:54:55.420Z,33.75
2018-07-25T08:55:55.442Z,34.55
2018-07-25T08:56:55.401Z,34.06
2018-07-25T08:57:55.401Z,34.94
2018-07-25T08:58:55.381Z,34.94
2018-07-25T08:59:55.381Z,35.03
2018-07-25T09:00:55.387Z,34.33
2018-07-25T09:01:55.377Z,33.46
2018-07-25T09:02:55.353Z,34.12
2018-07-25T09:03:55.333Z,33.83
2018-07-25T09:04:55.335Z,34.40
2018-07-25T09:05:55.348Z,33.72
2018-07-25T09:06:55.305Z,33.02
2018-07-25T09:07:55.305Z,33.90
2018-07-25T09:08:55.287Z,32.91
2018-07-25T09:09:55.278Z,31.84
2018-07-25T09:10:55.300Z,31.82
2018-07-25T09:11:55.259Z,33.49
2018-07-25T09:12:55.318Z,32.60
2018-07-25T09:13:55.239Z,33.67
2018-07-25T09:14:55.240Z,32.49
2018-07-25T09:15:55.247Z,32.29
2018-07-25T09:16:55.284Z,32.68
2018-07-25T09:17:55.213Z,31.42
2018-07-25T09:18:55.196Z,31.42
2018-07-25T09:19:55.227Z,30.54
2018-07-25T09:20:55.201Z,31.02
2018-07-25T09:21:55.174Z,32.18
2018-07-25T09:22:55.162Z,31.89
2018-07-25T09:23:55.156Z,32.76
2018-07-25T09:24:55.143Z,32.09
2018-07-25T09:25:55.157Z,32.28
2018-07-25T09:26:55.129Z,30.71
2018-07-25T09:27:55.115Z,31.10
2018-07-25T09:28:55.109Z,31.29
2018-07-25T09:29:55.098Z,30.73
2018-07-25T09:30:55.114Z,30.52
2018-07-25T09:31:55.086Z,30.21
2018-07-25T09:32:55.079Z,30.60
2018-07-25T09:33:55.088Z,30.79
2018-07-25T09:34:55.059Z,30.79
2018-07-25T09:35:55.064Z,30.00
2018-07-25T09:36:55.045Z,29.81
2018-07-25T09:37:55.032Z,29.32
2018-07-25T09:38:55.016Z,29.97
2018-07-25T09:39:55.014Z,28.05
2018-07-25T09:40:55.052Z,29.90
2018-07-25T09:41:54.990Z,30.28
2018-07-25T09:42:54.985Z,28.62
2018-07-25T09:43:54.972Z,29.78
2018-07-25T09:44:54.967Z,29.78
2018-07-25T09:45:54.987Z,29.49
2018-07-25T09:46:54.985Z,28.51
2018-07-25T09:47:54.938Z,29.08
2018-07-25T09:48:54.950Z,28.88
2018-07-25T09:49:54.926Z,29.35
2018-07-25T09:50:54.943Z,28.09
2018-07-25T09:51:54.905Z,27.89
2018-07-25T09:52:54.949Z,29.91
2018-07-25T09:53:54.891Z,28.84
2018-07-25T09:54:54.889Z,28.76
2018-07-25T09:55:54.920Z,27.68
2018-07-25T09:56:54.864Z,28.16
2018-07-25T09:57:54.859Z,27.19
2018-07-25T09:58:54.922Z,27.96
2018-07-25T09:59:54.833Z,27.94
2018-07-25T10:00:54.920Z,26.11
2018-07-25T10:01:54.826Z,27.06
2018-07-25T10:02:54.817Z,27.62
2018-07-25T10:03:54.811Z,26.27
2018-07-25T10:04:54.802Z,27.04
2018-07-25T10:05:54.819Z,26.17
2018-07-25T10:06:54.786Z,24.73
2018-07-25T10:07:54.778Z,25.20
2018-07-25T10:08:54.775Z,25.87
2018-07-25T10:09:54.763Z,25.47
2018-07-25T10:10:54.789Z,26.05
2018-07-25T10:11:54.749Z,24.30
2018-07-25T10:12:54.739Z,24.70
2018-07-25T10:13:54.731Z,25.57
2018-07-25T10:14:54.750Z,23.93
2018-07-25T10:15:54.746Z,25.57
2018-07-25T10:16:54.708Z,24.22
2018-07-25T10:17:54.702Z,25.18
2018-07-25T10:18:54.705Z,25.17
2018-07-25T10:19:54.685Z,25.27
2018-07-25T10:20:54.802Z,24.40
2018-07-25T10:21:54.668Z,25.45
2018-07-25T10:22:54.659Z,24.29
2018-07-25T10:23:54.652Z,24.87
2018-07-25T10:24:54.645Z,24.58
2018-07-25T10:25:54.664Z,25.53
2018-07-25T10:26:54.632Z,24.66
2018-07-25T10:27:54.621Z,24.38
2018-07-25T10:28:54.648Z,24.28
2018-07-25T10:29:54.606Z,24.57
2018-07-25T10:30:54.622Z,23.91
2018-07-25T10:31:54.590Z,25.54
2018-07-25T10:32:54.589Z,24.10
2018-07-25T10:33:54.574Z,24.09
2018-07-25T10:34:54.581Z,25.43
2018-07-25T10:35:54.625Z,25.32
2018-07-25T10:36:54.551Z,24.35
2018-07-25T10:37:54.543Z,24.44
2018-07-25T10:38:54.542Z,23.67
2018-07-25T10:39:54.528Z,24.15
2018-07-25T10:40:54.547Z,22.41
2018-07-25T10:41:54.513Z,24.13
2018-07-25T10:42:54.505Z,22.50
2018-07-25T10:43:54.499Z,21.84
2018-07-25T10:44:54.491Z,24.03
2018-07-25T10:45:54.518Z,23.36
2018-07-25T10:46:54.473Z,23.07
2018-07-25T10:47:54.465Z,23.93
2018-07-25T10:48:54.482Z,22.70
2018-07-25T10:49:54.449Z,23.08
2018-07-25T10:50:54.469Z,23.46
2018-07-25T10:51:54.434Z,23.66
2018-07-25T10:52:54.439Z,24.43
2018-07-25T10:53:54.417Z,22.88
2018-07-25T10:54:54.409Z,23.46
2018-07-25T10:55:54.465Z,22.69
2018-07-25T10:56:54.395Z,22.39
2018-07-25T10:57:54.393Z,22.68
2018-07-25T10:58:54.380Z,21.72
2018-07-25T10:59:54.372Z,21.61
2018-07-25T11:00:54.406Z,19.89
2018-07-25T11:01:54.358Z,20.67
2018-07-25T11:02:54.349Z,21.91
2018-07-25T11:03:54.411Z,21.91
2018-07-25T11:04:54.332Z,21.91
2018-07-25T11:05:54.350Z,20.66
2018-07-25T11:06:54.317Z,21.90
2018-07-25T11:07:54.308Z,21.61
2018-07-25T11:08:54.301Z,22.66
2018-07-25T11:09:54.292Z,20.56
2018-07-25T11:10:54.309Z,22.49
2018-07-25T11:11:54.286Z,23.44
2018-07-25T11:12:54.267Z,20.49
2018-07-25T11:13:54.260Z,21.83
2018-07-25T11:14:54.250Z,21.94
2018-07-25T11:15:54.266Z,21.74
2018-07-25T11:16:54.235Z,23.18
2018-07-25T11:17:54.226Z,22.80
2018-07-25T11:18:54.218Z,22.80
2018-07-25T11:19:54.213Z,21.45
2018-07-25T11:20:54.228Z,23.55
2018-07-25T11:21:54.193Z,21.25
2018-07-25T11:22:54.196Z,21.64
2018-07-25T11:23:54.175Z,21.81
2018-07-25T11:24:54.170Z,20.38
2018-07-25T11:25:54.216Z,22.68
2018-07-25T11:26:54.156Z,21.91
2018-07-25T11:27:54.139Z,20.09
2018-07-25T11:28:54.252Z,20.58
2018-07-25T11:29:54.122Z,19.84
2018-07-25T11:30:54.138Z,19.74
2018-07-25T11:31:54.157Z,21.49
2018-07-25T11:32:54.184Z,21.02
2018-07-25T11:33:54.088Z,22.36
2018-07-25T11:34:54.078Z,24.19
2018-07-25T11:35:54.093Z,21.87
2018-07-25T11:36:54.060Z,23.11
2018-07-25T11:37:54.051Z,21.67
2018-07-25T11:38:54.045Z,22.42
2018-07-25T11:39:54.035Z,23.55
2018-07-25T11:40:54.051Z,22.11
2018-07-25T11:41:54.019Z,21.90
2018-07-25T11:42:54.011Z,21.22
2018-07-25T11:43:54.008Z,20.75
2018-07-25T11:44:53.996Z,20.54
2018-07-25T11:45:54.013Z,18.52
2018-07-25T11:46:53.979Z,19.01
2018-07-25T11:47:53.970Z,18.71
2018-07-25T11:48:53.965Z,20.90
2018-07-25T11:49:53.997Z,19.66
2018-07-25T11:50:53.977Z,19.38
2018-07-25T11:51:53.943Z,19.48
2018-07-25T11:52:53.933Z,17.95
2018-07-25T11:53:53.924Z,18.74
2018-07-25T11:54:53.917Z,19.03
2018-07-25T11:55:53.939Z,18.67
2018-07-25T11:56:53.898Z,20.89
2018-07-25T11:57:53.889Z,21.77
2018-07-25T11:58:53.883Z,23.57
2018-07-25T11:59:53.873Z,22.71
2018-07-25T12:00:53.888Z,23.38
2018-07-25T12:01:53.862Z,21.15
2018-07-25T12:02:53.847Z,20.29
2018-07-25T12:03:53.840Z,20.78
2018-07-25T12:04:53.832Z,19.90
2018-07-25T12:05:53.847Z,21.44
2018-07-25T12:06:53.820Z,21.34
2018-07-25T12:07:53.804Z,20.09
2018-07-25T12:08:53.795Z,19.02
2018-07-25T12:09:53.793Z,21.88
2018-07-25T12:10:53.804Z,19.20
2018-07-25T12:11:53.771Z,19.57
2018-07-25T12:12:53.873Z,19.09
2018-07-25T12:13:53.757Z,19.56
2018-07-25T12:14:53.749Z,20.33
2018-07-25T12:15:53.768Z,18.89
2018-07-25T12:16:53.731Z,20.42
2018-07-25T12:17:53.722Z,20.13
2018-07-25T12:18:53.736Z,18.40
2018-07-25T12:19:53.708Z,18.21
2018-07-25T12:20:53.743Z,18.70
2018-07-25T12:21:53.690Z,17.65
2018-07-25T12:22:53.683Z,17.94
2018-07-25T12:23:53.673Z,18.25
2018-07-25T12:24:53.664Z,18.46
2018-07-25T12:25:53.678Z,18.76
2018-07-25T12:26:53.652Z,18.98
2018-07-25T12:27:53.636Z,18.80
2018-07-25T12:28:53.631Z,19.59
2018-07-25T12:29:53.618Z,22.88
2018-07-25T12:30:53.631Z,22.50
2018-07-25T12:31:53.598Z,24.15
2018-07-25T12:32:53.592Z,22.03
2018-07-25T12:33:53.577Z,20.70
2018-07-25T12:34:53.568Z,23.50
2018-07-25T12:35:53.582Z,21.78
2018-07-25T12:36:53.591Z,22.56
2018-07-25T12:37:53.547Z,23.04
2018-07-25T12:38:53.531Z,21.89
2018-07-25T12:39:53.519Z,21.99
2018-07-25T12:40:53.533Z,25.19
2018-07-25T12:41:53.503Z,22.38
2018-07-25T12:42:53.530Z,21.89
2018-07-25T12:43:53.480Z,22.94
2018-07-25T12:44:53.470Z,22.56
2018-07-25T12:45:53.486Z,22.94
2018-07-25T12:46:53.451Z,22.45
2018-07-25T12:47:53.441Z,24.67
2018-07-25T12:48:53.430Z,23.71
2018-07-25T12:49:53.420Z,24.57
2018-07-25T12:50:53.432Z,24.48
2018-07-25T12:51:53.399Z,23.71